Time;durP1;ratioP1;P1;durP2;ratioP2;P2;SDS_P1;SDS_P2;PMS_P1;PMS_P2;Temp;Humidity;BMP_temperature;BMP_pressure;BME280_temperature;BME280_humidity;BME280_pressure;Samples;Min_cycle;Max_cycle;Signal;HPM_P1;HPM_P2
2022/02/04 00:01:13;;;;;;;6.83;2.77;;;;;;;7.33;92.75;96009.28;5035976;28;20237;-68
2022/02/04 00:09:15;;;;;;;5.20;2.37;;;;;;;7.00;92.73;96019.88;5034266;28;20236;-69
2022/02/04 00:22:55;;;;;;;5.53;3.33;;;;;;;6.91;93.00;96052.25;5035833;28;20302;-68
2022/02/04 00:25:32;;;;;;;7.03;3.23;;;;;;;7.04;91.62;96056.09;5036721;28;20212;-70
2022/02/04 00:28:04;;;;;;;7.33;3.47;;;;;;;6.93;91.36;96060.78;5036003;28;20596;-69
2022/02/04 00:30:35;;;;;;;4.77;2.40;;;;;;;6.70;91.06;96064.97;5036665;28;20209;-70
2022/02/04 00:33:03;;;;;;;4.77;3.30;;;;;;;6.73;91.75;96059.41;5035567;28;20723;-70
2022/02/04 00:35:43;;;;;;;5.30;3.07;;;;;;;6.72;91.07;96068.22;5036684;28;20295;-70
2022/02/04 00:38:20;;;;;;;5.37;3.20;;;;;;;6.67;91.54;96073.16;5035320;28;20598;-69
2022/02/04 00:40:51;;;;;;;3.83;2.30;;;;;;;6.46;91.88;96079.75;5036827;28;20527;-69
2022/02/04 00:43:18;;;;;;;4.07;2.33;;;;;;;6.36;90.71;96092.94;5034628;28;20210;-70
2022/02/04 00:45:50;;;;;;;4.77;2.43;;;;;;;6.14;90.93;96082.16;5036767;28;20287;-69
2022/02/04 00:48:29;;;;;;;5.80;2.90;;;;;;;6.17;91.33;96074.84;5035678;28;20684;-69
2022/02/04 00:51:08;;;;;;;5.63;2.20;;;;;;;6.36;90.34;96085.06;5036328;28;20209;-69
2022/02/04 00:53:42;;;;;;;9.87;3.53;;;;;;;6.15;89.60;96089.06;5035524;28;20585;-70
2022/02/04 00:56:19;;;;;;;6.43;2.37;;;;;;;5.85;91.51;96086.88;5036274;28;20205;-68
2022/02/04 01:26:17;;;;;;;4.30;2.00;;;;;;;5.28;90.03;96107.38;5039850;28;20216;-72
2022/02/04 01:28:46;;;;;;;3.30;1.90;;;;;;;5.34;89.69;96117.25;5039539;28;20221;-70
2022/02/04 01:31:15;;;;;;;3.70;2.37;;;;;;;5.34;91.07;96112.03;5039370;28;20209;-69
2022/02/04 01:33:43;;;;;;;3.90;2.50;;;;;;;4.84;92.60;96108.22;5039270;28;20221;-69
2022/02/04 01:36:09;;;;;;;10.33;3.20;;;;;;;4.81;95.19;96110.28;5039438;28;20316;-69
2022/02/04 01:38:37;;;;;;;8.63;3.40;;;;;;;5.21;96.75;96110.75;5039556;28;20221;-69
2022/02/04 01:41:05;;;;;;;5.17;2.80;;;;;;;5.39;94.84;96107.19;5039431;28;20208;-69
2022/02/04 01:43:32;;;;;;;6.37;3.00;;;;;;;5.12;91.83;96106.41;5038862;28;20205;-72
2022/02/04 01:46:01;;;;;;;8.50;2.67;;;;;;;5.40;91.88;96106.22;5039250;28;20209;-72
2022/02/04 01:48:28;;;;;;;3.70;2.67;;;;;;;5.34;91.92;96106.81;5038896;28;20324;-72
2022/02/04 01:50:55;;;;;;;5.60;2.87;;;;;;;5.30;92.98;96105.47;5039329;28;20212;-71
2022/02/04 01:53:27;;;;;;;4.73;2.37;;;;;;;5.53;92.13;96106.66;5038617;28;20232;-73
2022/02/04 01:55:57;;;;;;;4.37;2.10;;;;;;;5.63;91.03;96110.84;5039061;28;21107;-73
2022/02/04 01:58:25;;;;;;;5.17;2.80;;;;;;;5.61;90.55;96109.34;5039087;28;20217;-72
2022/02/04 02:00:51;;;;;;;7.27;3.17;;;;;;;5.57;92.53;96105.38;5039076;28;20591;-70
2022/02/04 02:03:19;;;;;;;6.00;3.17;;;;;;;5.70;92.51;96104.06;5038380;28;21003;-70
2022/02/04 02:05:46;;;;;;;5.23;2.47;;;;;;;5.88;94.11;96106.66;5038543;28;20216;-70
2022/02/04 02:08:16;;;;;;;3.17;2.30;;;;;;;5.98;95.25;96110.00;5039223;28;20221;-70
2022/02/04 02:10:44;;;;;;;5.00;2.77;;;;;;;6.14;94.58;96111.75;5036269;28;20211;-70
2022/02/04 02:13:21;;;;;;;8.43;3.17;;;;;;;6.18;94.06;96101.81;5039145;28;20630;-70
2022/02/04 02:15:57;;;;;;;4.60;3.27;;;;;;;5.95;93.45;96092.03;5038727;28;20255;-70
2022/02/04 02:35:24;;;;;;;6.63;3.03;;;;;;;6.04;92.84;96087.50;5039090;28;20812;-72
2022/02/04 02:49:24;;;;;;;9.07;3.60;;;;;;;5.80;96.11;96088.28;5039373;28;20233;-70
2022/02/04 02:52:01;;;;;;;4.43;2.60;;;;;;;5.97;96.43;96087.44;5038502;28;21026;-70
2022/02/04 02:55:00;;;;;;;6.77;2.73;;;;;;;6.17;95.81;96085.31;5037255;28;20268;-71
2022/02/04 03:00:14;;;;;;;7.10;3.33;;;;;;;6.03;95.90;96095.50;5025288;28;20213;-70
2022/02/04 03:02:41;;;;;;;7.37;3.33;;;;;;;6.01;95.80;96101.84;5037391;28;20200;-70
2022/02/04 03:05:08;;;;;;;5.70;3.53;;;;;;;6.01;95.73;96102.69;5038230;28;21038;-70
2022/02/04 03:07:35;;;;;;;5.90;3.73;;;;;;;6.05;95.11;96104.81;5038517;28;20209;-70
2022/02/04 03:10:03;;;;;;;6.77;3.50;;;;;;;6.19;95.02;96101.66;5035412;28;20201;-70
2022/02/04 03:12:31;;;;;;;6.73;3.13;;;;;;;6.04;95.07;96101.56;5036451;28;21164;-70
2022/02/04 03:14:58;;;;;;;6.40;2.93;;;;;;;5.97;95.80;96100.50;5037766;28;20727;-73
2022/02/04 03:17:25;;;;;;;9.93;3.13;;;;;;;5.98;95.72;96102.97;5037337;28;20721;-72
2022/02/04 03:19:56;;;;;;;7.30;3.37;;;;;;;6.04;95.16;96105.00;5037578;28;20257;-70
2022/02/04 03:22:23;;;;;;;6.07;3.03;;;;;;;6.12;94.72;96111.09;5037455;28;20217;-70
2022/02/04 03:24:57;;;;;;;7.57;3.97;;;;;;;6.10;94.55;96113.03;5037698;28;20197;-70
2022/02/04 03:27:32;;;;;;;6.67;2.67;;;;;;;6.31;94.76;96112.69;5037890;28;20205;-70
2022/02/04 03:30:05;;;;;;;6.13;3.83;;;;;;;6.03;95.20;96115.59;5038346;28;20220;-70
2022/02/04 03:32:33;;;;;;;8.07;3.90;;;;;;;6.10;95.19;96110.44;5037603;28;20207;-70
2022/02/04 03:34:59;;;;;;;8.10;3.83;;;;;;;6.24;94.39;96119.53;5037088;28;20256;-70
2022/02/04 03:37:26;;;;;;;6.30;2.63;;;;;;;6.23;94.47;96123.91;5036952;28;20198;-70
2022/02/04 03:39:53;;;;;;;8.10;3.07;;;;;;;6.11;94.50;96132.19;5037573;28;20237;-70
2022/02/04 03:42:19;;;;;;;7.27;3.57;;;;;;;6.24;94.41;96136.03;5036002;28;20205;-70
2022/02/04 03:44:47;;;;;;;6.63;3.93;;;;;;;6.38;94.63;96132.84;5036769;28;20212;-70
2022/02/04 03:47:13;;;;;;;8.87;3.57;;;;;;;6.14;94.84;96127.44;5037114;28;20209;-70
2022/02/04 03:49:40;;;;;;;8.43;3.17;;;;;;;6.32;94.44;96136.09;5036163;28;20240;-70
2022/02/04 03:52:07;;;;;;;6.47;3.27;;;;;;;6.47;93.88;96131.94;5036724;28;20228;-70
2022/02/04 03:54:33;;;;;;;9.43;4.03;;;;;;;6.36;93.18;96145.25;5036660;28;20228;-70
2022/02/04 03:57:00;;;;;;;10.40;3.63;;;;;;;6.35;93.86;96143.66;5036637;28;20209;-70
2022/02/04 03:59:28;;;;;;;16.80;5.70;;;;;;;6.38;93.80;96145.94;5032505;28;20296;-70
2022/02/04 04:01:56;;;;;;;8.93;3.97;;;;;;;6.47;94.04;96150.25;5037097;28;20588;-70
2022/02/04 04:04:27;;;;;;;11.40;4.73;;;;;;;6.31;94.11;96152.78;5036330;28;20619;-70
2022/02/04 04:06:54;;;;;;;11.70;4.87;;;;;;;6.35;94.21;96150.66;5036967;28;20247;-71
2022/02/04 04:09:20;;;;;;;22.07;6.20;;;;;;;6.40;94.01;96148.41;5032829;28;20740;-70
2022/02/04 04:11:48;;;;;;;6.37;4.43;;;;;;;6.29;94.85;96159.94;5037207;28;20201;-70
2022/02/04 04:14:17;;;;;;;10.50;4.33;;;;;;;6.39;94.26;96158.06;5035872;28;20242;-70
2022/02/04 04:16:44;;;;;;;9.50;4.80;;;;;;;6.50;94.15;96165.63;5037020;28;20296;-70
2022/02/04 04:19:11;;;;;;;9.20;4.17;;;;;;;6.57;93.68;96163.22;5036417;28;20225;-70
2022/02/04 04:21:38;;;;;;;14.07;6.33;;;;;;;6.43;93.90;96162.00;5037345;28;20209;-70
2022/02/04 04:24:05;;;;;;;6.80;4.00;;;;;;;6.43;94.24;96161.16;5035708;28;20205;-70
2022/02/04 04:26:31;;;;;;;9.07;3.83;;;;;;;6.07;96.12;96165.66;5037183;28;20212;-71
2022/02/04 04:28:58;;;;;;;8.67;2.90;;;;;;;6.38;94.82;96169.50;5036297;28;20235;-70
2022/02/04 04:31:24;;;;;;;14.00;4.17;;;;;;;6.12;95.10;96168.66;5036772;28;20205;-70
2022/02/04 04:33:51;;;;;;;7.87;3.80;;;;;;;6.30;94.94;96161.59;5036407;28;20216;-70
2022/02/04 04:36:20;;;;;;;6.07;2.90;;;;;;;6.40;95.10;96157.09;5035965;28;20254;-70
2022/02/04 04:38:52;;;;;;;14.30;4.47;;;;;;;6.27;94.39;96161.88;5036422;28;20225;-73
2022/02/04 04:41:28;;;;;;;5.20;3.40;;;;;;;6.19;95.10;96164.44;5036671;28;20225;-73
2022/02/04 04:44:27;;;;;;;3.10;2.43;;;;;;;5.87;96.13;96167.75;5036489;28;20219;-73
2022/02/04 05:28:16;;;;;;;3.43;2.17;;;;;;;5.96;91.95;96159.00;5035532;28;20590;-71
2022/02/04 05:30:42;;;;;;;4.63;2.93;;;;;;;6.13;90.76;96149.34;5036120;28;20296;-71
2022/02/04 05:33:10;;;;;;;4.60;2.60;;;;;;;6.32;89.88;96151.78;5035171;28;20599;-71
2022/02/04 05:35:37;;;;;;;3.73;2.57;;;;;;;6.24;89.67;96156.97;5036962;28;20232;-71
2022/02/04 05:38:04;;;;;;;4.77;3.17;;;;;;;6.32;89.57;96156.22;5039093;28;20279;-71
2022/02/04 05:40:39;;;;;;;4.73;2.77;;;;;;;6.47;88.96;96152.88;5039722;28;20333;-71
2022/02/04 05:43:16;;;;;;;5.23;2.87;;;;;;;6.50;88.88;96162.22;5038493;28;20207;-71
2022/02/04 05:45:51;;;;;;;26.30;5.20;;;;;;;6.36;89.06;96170.63;5038988;28;20211;-71
2022/02/04 05:48:18;;;;;;;12.63;3.83;;;;;;;6.47;88.46;96168.56;5038869;28;20232;-68
2022/02/04 05:50:54;;;;;;;8.93;4.03;;;;;;;6.50;88.60;96173.50;5040789;28;20201;-69
2022/02/04 05:53:25;;;;;;;3.30;1.50;;;;;;;6.21;89.52;96170.34;5039383;28;20224;-71
2022/02/04 05:56:05;;;;;;;3.73;2.53;;;;;;;6.32;90.03;96170.09;5037847;28;20232;-71
2022/02/04 05:58:43;;;;;;;3.53;2.57;;;;;;;6.00;91.04;96178.69;5038665;28;20248;-71
2022/02/04 06:01:24;;;;;;;5.27;2.77;;;;;;;6.16;90.47;96179.63;5039155;28;20216;-71
2022/02/04 06:04:01;;;;;;;3.17;2.17;;;;;;;6.36;89.36;96176.66;5038480;28;20229;-71
2022/02/04 06:07:03;;;;;;;4.20;2.33;;;;;;;6.09;90.06;96174.16;5039962;28;20205;-68
2022/02/04 06:22:06;;;;;;;9.40;4.37;;;;;;;6.18;90.02;96183.72;5034122;28;20217;-71
2022/02/04 06:23:38;;;;;;;11.37;4.13;;;;;;;6.06;90.08;96190.19;5041761;28;20701;-71
2022/02/04 06:26:04;;;;;;;6.07;3.27;;;;;;;6.23;90.20;96194.56;5044065;28;20205;-71
2022/02/04 06:28:32;;;;;;;4.63;3.27;;;;;;;6.12;90.51;96193.97;5042677;28;20221;-68
2022/02/04 06:30:59;;;;;;;3.73;2.53;;;;;;;5.82;91.43;96198.78;5043467;28;20205;-71
2022/02/04 06:33:27;;;;;;;5.87;3.27;;;;;;;6.10;91.34;96193.31;5042370;28;20220;-71
2022/02/04 06:35:53;;;;;;;7.53;3.33;;;;;;;5.86;91.72;96200.94;5042447;28;20229;-72
2022/02/04 06:38:21;;;;;;;4.93;3.30;;;;;;;6.09;90.49;96200.31;5043634;28;20957;-71
2022/02/04 06:40:48;;;;;;;6.33;3.43;;;;;;;5.74;92.10;96196.88;5043782;28;20212;-71
2022/02/04 06:43:14;;;;;;;4.77;2.47;;;;;;;5.85;92.28;96195.88;5041129;28;20201;-72
2022/02/04 06:45:42;;;;;;;10.27;4.10;;;;;;;5.81;93.52;96197.16;5038662;28;20197;-72
2022/02/04 06:48:08;;;;;;;4.10;2.13;;;;;;;5.67;92.73;96200.22;5037467;28;20717;-72
2022/02/04 06:50:35;;;;;;;6.90;2.83;;;;;;;5.71;93.31;96193.72;5038602;28;20681;-72
2022/02/04 06:53:03;;;;;;;11.90;6.20;;;;;;;5.87;93.07;96199.97;5036967;28;20218;-72
2022/02/04 06:55:30;;;;;;;11.87;4.83;;;;;;;5.98;92.32;96209.38;5038726;28;20754;-72
2022/02/04 06:57:57;;;;;;;8.33;3.60;;;;;;;6.10;92.29;96217.66;5037655;28;20204;-72
2022/02/04 07:00:26;;;;;;;8.50;3.83;;;;;;;6.07;92.07;96212.75;5038592;28;20247;-71
2022/02/04 07:02:55;;;;;;;12.40;5.00;;;;;;;5.98;92.55;96212.00;5037523;28;20201;-72
2022/02/04 07:05:23;;;;;;;6.80;2.67;;;;;;;6.01;93.29;96214.31;5037728;28;20193;-72
2022/02/04 07:07:57;;;;;;;5.73;3.07;;;;;;;6.00;93.40;96220.53;5037814;28;20205;-72
2022/02/04 07:10:32;;;;;;;8.43;3.00;;;;;;;6.05;92.94;96219.91;5034634;28;20617;-71
2022/02/04 07:13:06;;;;;;;9.03;3.07;;;;;;;5.76;93.76;96215.88;5036914;28;20204;-72
2022/02/04 07:21:02;;;;;;;6.03;3.40;;;;;;;5.89;94.08;96213.72;5038717;28;20215;-72
2022/02/04 07:23:29;;;;;;;8.23;3.23;;;;;;;5.93;94.34;96207.25;5037007;28;20197;-72
2022/02/04 07:25:55;;;;;;;7.00;3.43;;;;;;;5.98;93.72;96217.22;5038064;28;20198;-71
2022/02/04 07:28:23;;;;;;;11.10;3.47;;;;;;;6.03;94.12;96218.41;5037622;28;20224;-71
2022/02/04 07:30:50;;;;;;;3.97;2.17;;;;;;;6.04;93.18;96223.50;5037573;28;20266;-72
2022/02/04 07:33:21;;;;;;;11.13;4.23;;;;;;;6.18;93.25;96220.34;5036665;28;20209;-72
2022/02/04 07:41:17;;;;;;;10.97;3.93;;;;;;;6.43;92.07;96216.97;5015177;28;20197;-71
2022/02/04 07:43:43;;;;;;;11.93;3.53;;;;;;;6.43;91.59;96214.34;5035599;28;20212;-71
2022/02/04 07:46:12;;;;;;;7.23;3.00;;;;;;;6.69;90.76;96220.41;5037848;28;20193;-72
2022/02/04 07:48:41;;;;;;;11.37;4.77;;;;;;;6.44;92.40;96218.63;5037187;28;20221;-71
2022/02/04 07:51:07;;;;;;;8.10;4.20;;;;;;;6.38;92.64;96221.84;5037625;28;20201;-72
2022/02/04 07:53:34;;;;;;;8.80;3.90;;;;;;;6.43;91.65;96219.59;5036469;28;20740;-72
2022/02/04 07:56:02;;;;;;;9.70;3.97;;;;;;;6.29;92.29;96212.28;5037380;28;20229;-72
2022/02/04 07:58:29;;;;;;;7.03;4.53;;;;;;;6.59;91.43;96214.44;5034063;28;20712;-72
2022/02/04 08:00:56;;;;;;;9.57;4.50;;;;;;;6.76;90.73;96216.22;5035898;28;20572;-69
2022/02/04 08:03:38;;;;;;;11.13;4.37;;;;;;;6.81;90.84;96216.56;5035451;28;20212;-69
2022/02/04 08:06:10;;;;;;;7.77;3.77;;;;;;;6.96;89.94;96218.47;5035626;28;20243;-72
2022/02/04 08:08:44;;;;;;;5.37;2.47;;;;;;;6.51;91.32;96217.03;5036041;28;20224;-71
2022/02/04 08:11:23;;;;;;;14.77;4.03;;;;;;;6.61;91.27;96227.41;5036079;28;20200;-72
2022/02/04 08:16:59;;;;;;;5.87;3.03;;;;;;;6.74;90.47;96218.97;5033852;28;20213;-70
2022/02/04 08:19:55;;;;;;;10.97;4.30;;;;;;;6.93;90.12;96223.19;5035144;28;20253;-70
2022/02/04 08:22:46;;;;;;;7.20;4.10;;;;;;;6.89;90.79;96219.25;5035169;28;20225;-70
2022/02/04 08:28:19;;;;;;;10.57;3.83;;;;;;;6.65;90.47;96219.09;5029743;28;20296;-70
2022/02/04 08:31:20;;;;;;;15.67;4.23;;;;;;;6.73;90.53;96216.50;5032692;28;20542;-72
2022/02/04 08:48:02;;;;;;;13.47;4.27;;;;;;;7.18;89.40;96232.81;5035238;28;20259;-72
2022/02/04 08:50:45;;;;;;;6.43;3.50;;;;;;;7.15;88.93;96233.13;5033474;28;20202;-70
2022/02/04 08:55:56;;;;;;;5.60;3.70;;;;;;;7.45;88.83;96234.25;5034695;28;20224;-72
2022/02/04 08:58:30;;;;;;;8.20;3.90;;;;;;;7.13;89.62;96229.84;5033976;28;20448;-72
2022/02/04 09:01:03;;;;;;;7.13;4.37;;;;;;;7.24;89.14;96224.31;5034353;28;20627;-72
2022/02/04 09:03:37;;;;;;;5.40;3.00;;;;;;;7.16;89.74;96219.88;5034132;28;20234;-72
2022/02/04 09:06:10;;;;;;;3.80;2.47;;;;;;;7.06;89.45;96216.53;5034135;28;20400;-72
2022/02/04 09:08:41;;;;;;;9.23;4.03;;;;;;;7.16;89.73;96226.91;5034215;28;20660;-72
2022/02/04 09:11:14;;;;;;;8.97;4.67;;;;;;;7.29;89.21;96228.13;5033331;28;20197;-72
2022/02/04 09:19:25;;;;;;;6.50;3.60;;;;;;;7.41;88.04;96226.88;4977305;28;20288;-71
2022/02/04 09:22:06;;;;;;;8.47;3.97;;;;;;;7.43;87.91;96225.75;4977772;28;21017;-71
2022/02/04 09:24:32;;;;;;;6.73;3.97;;;;;;;7.29;87.88;96212.38;5011020;28;20236;-72
2022/02/04 09:27:02;;;;;;;8.10;4.17;;;;;;;7.58;87.90;96205.78;5038859;28;20205;-71
2022/02/04 09:29:29;;;;;;;10.20;3.50;;;;;;;7.50;87.39;96205.75;5040959;28;20275;-72
2022/02/04 09:31:55;;;;;;;10.17;4.83;;;;;;;7.68;86.86;96206.47;5038831;28;20515;-70
2022/02/04 09:34:22;;;;;;;8.33;4.27;;;;;;;7.63;86.59;96206.13;5038655;28;20212;-69
2022/02/04 09:36:48;;;;;;;14.07;5.60;;;;;;;7.90;85.63;96204.06;5038609;28;20708;-69
2022/02/04 09:39:14;;;;;;;10.03;4.10;;;;;;;8.19;85.54;96207.06;5038900;28;20901;-70
2022/02/04 09:41:43;;;;;;;10.23;4.23;;;;;;;8.26;84.33;96205.44;5039383;28;20206;-69
2022/02/04 09:44:11;;;;;;;5.67;2.77;;;;;;;8.26;83.17;96207.22;5038897;28;20201;-71
2022/02/04 09:46:39;;;;;;;9.93;4.67;;;;;;;8.22;83.03;96203.28;5037082;28;20209;-70
2022/02/04 09:49:13;;;;;;;7.30;3.30;;;;;;;8.43;82.76;96199.19;5039217;28;20229;-70
2022/02/04 10:04:16;;;;;;;8.10;3.20;;;;;;;8.15;82.82;96202.31;5038134;28;20711;-70
2022/02/04 10:09:00;;;;;;;3.27;2.57;;;;;;;8.99;79.86;96201.75;5030829;28;20366;-71
2022/02/04 10:14:40;;;;;;;6.90;3.20;;;;;;;8.51;81.63;96201.81;5037920;28;20205;-71
2022/02/04 10:17:13;;;;;;;8.70;4.27;;;;;;;8.72;81.05;96197.69;5039000;28;20232;-70
2022/02/04 10:19:49;;;;;;;3.13;1.83;;;;;;;8.78;81.36;96204.91;5039171;28;20221;-71
2022/02/04 10:22:19;;;;;;;6.10;3.37;;;;;;;8.89;81.49;96199.31;5036159;28;20287;-70
2022/02/04 10:24:54;;;;;;;5.33;3.33;;;;;;;9.05;79.04;96196.66;5038527;28;20201;-70
2022/02/04 10:27:23;;;;;;;7.50;3.37;;;;;;;9.12;80.34;96200.22;5038593;28;20318;-71
2022/02/04 10:29:55;;;;;;;6.83;3.17;;;;;;;9.19;79.00;96185.44;5037974;28;20217;-70
2022/02/04 10:32:41;;;;;;;4.93;2.10;;;;;;;9.39;78.02;96176.94;5037747;28;20219;-70
2022/02/04 10:35:14;;;;;;;8.33;3.50;;;;;;;9.60;78.09;96174.56;5036489;28;20662;-69
2022/02/04 10:37:43;;;;;;;8.47;3.20;;;;;;;9.41;77.85;96174.16;5038953;28;20530;-69
2022/02/04 10:40:31;;;;;;;6.10;2.33;;;;;;;9.32;77.33;96175.19;5038177;28;20227;-70
2022/02/04 10:43:12;;;;;;;6.00;2.33;;;;;;;9.32;77.64;96169.94;5037652;28;20205;-69
2022/02/04 10:45:52;;;;;;;4.27;2.70;;;;;;;9.58;77.46;96159.94;5038692;28;20205;-69
2022/02/04 10:48:36;;;;;;;4.00;2.17;;;;;;;9.90;75.38;96158.75;5038014;28;20264;-69
2022/02/04 10:51:35;;;;;;;5.50;3.17;;;;;;;10.02;76.01;96156.56;5038682;28;20204;-69
2022/02/04 11:03:05;;;;;;;3.83;2.17;;;;;;;9.49;76.78;96147.81;5014961;28;20209;-70
2022/02/04 11:05:48;;;;;;;2.00;1.60;;;;;;;9.50;77.00;96144.19;5027493;28;20596;-70
2022/02/04 11:08:44;;;;;;;8.73;2.60;;;;;;;9.14;77.38;96137.81;5038075;28;20245;-70
2022/02/04 11:36:44;;;;;;;9.17;2.87;;;;;;;8.69;80.50;96115.78;5037179;28;20686;-69
2022/02/04 11:48:57;;;;;;;7.50;3.23;;;;;;;8.71;80.05;96090.97;5037185;28;20239;-69
2022/02/04 11:54:40;;;;;;;2.27;1.27;;;;;;;8.55;80.67;96083.16;5032916;28;20343;-69
2022/02/04 11:57:18;;;;;;;6.50;2.40;;;;;;;8.83;79.63;96081.72;5036445;28;20308;-69
2022/02/04 11:59:46;;;;;;;3.83;2.43;;;;;;;8.73;80.08;96073.25;5036687;28;20270;-69
2022/02/04 12:02:36;;;;;;;2.70;1.40;;;;;;;8.95;78.30;96083.00;5035568;28;20305;-70
2022/02/04 12:05:33;;;;;;;3.60;1.23;;;;;;;8.92;78.27;96072.03;5036254;28;20571;-69
2022/02/04 12:08:25;;;;;;;4.60;2.33;;;;;;;8.88;78.27;96074.16;5036279;28;20977;-70
2022/02/04 12:10:55;;;;;;;3.33;1.27;;;;;;;8.66;79.38;96082.78;5036386;28;20310;-69
2022/02/04 12:13:23;;;;;;;1.87;1.20;;;;;;;8.44;79.08;96079.22;5035813;28;20213;-69
2022/02/04 12:15:55;;;;;;;3.00;1.23;;;;;;;8.53;79.33;96069.38;5036051;28;20769;-69
2022/02/04 12:18:24;;;;;;;1.97;1.20;;;;;;;8.45;79.17;96065.13;5037553;28;20236;-69
2022/02/04 12:20:58;;;;;;;3.70;1.83;;;;;;;8.68;78.82;96059.81;5036340;28;21033;-69
2022/02/04 12:23:49;;;;;;;1.30;0.53;;;;;;;8.59;78.06;96067.88;5035934;28;20193;-69
2022/02/04 12:26:20;;;;;;;4.80;1.87;;;;;;;8.74;78.98;96059.09;5032718;28;20202;-69
2022/02/04 12:28:49;;;;;;;8.70;1.57;;;;;;;8.75;79.24;96055.50;5036803;28;20225;-70
2022/02/04 12:31:20;;;;;;;7.33;1.97;;;;;;;8.70;78.77;96049.13;5035949;28;20197;-69
2022/02/04 12:33:48;;;;;;;3.37;0.90;;;;;;;8.53;78.81;96048.34;5033616;28;20582;-69
2022/02/04 12:36:17;;;;;;;0.80;0.80;;;;;;;8.55;78.56;96041.16;5035933;28;20228;-69
2022/02/04 12:38:43;;;;;;;3.83;1.80;;;;;;;8.20;79.37;96048.59;5035738;28;20216;-69
2022/02/04 12:41:18;;;;;;;2.43;1.00;;;;;;;8.35;79.22;96035.59;5036223;28;20208;-69
2022/02/04 12:43:48;;;;;;;14.53;4.37;;;;;;;8.86;78.70;96039.38;5035748;28;20209;-70
2022/02/04 12:46:15;;;;;;;6.70;1.60;;;;;;;8.56;79.53;96032.25;5036134;28;20233;-69
2022/02/04 12:48:41;;;;;;;5.20;2.57;;;;;;;8.51;80.35;96026.72;5036296;28;20225;-69
2022/02/04 12:51:09;;;;;;;4.50;1.57;;;;;;;8.54;80.58;96026.38;5035894;28;20201;-69
2022/02/04 12:53:40;;;;;;;4.23;1.97;;;;;;;8.66;80.99;96011.88;5035480;28;20236;-69
2022/02/04 12:56:20;;;;;;;5.00;2.50;;;;;;;8.69;81.32;96014.16;5036390;28;20874;-69
2022/02/04 12:59:09;;;;;;;6.03;3.50;;;;;;;8.75;81.21;96000.31;5036069;28;20881;-69
2022/02/04 13:07:37;;;;;;;15.50;2.60;;;;;;;8.69;81.86;96010.72;5035085;28;20211;-69
2022/02/04 13:10:05;;;;;;;5.57;2.60;;;;;;;8.61;82.82;96003.69;5035735;28;20591;-69
2022/02/04 13:12:31;;;;;;;5.80;3.10;;;;;;;8.55;82.72;96006.16;5035074;28;20213;-70
2022/02/04 13:15:12;;;;;;;7.30;3.10;;;;;;;8.74;82.56;95997.88;5035403;28;20197;-69
2022/02/04 13:17:38;;;;;;;6.13;2.77;;;;;;;8.47;82.73;95993.06;5035835;28;20221;-69
2022/02/04 13:20:06;;;;;;;5.73;2.77;;;;;;;8.59;83.18;95989.91;5036122;28;20221;-69
2022/02/04 13:22:33;;;;;;;6.93;2.73;;;;;;;8.51;83.08;95989.94;5039092;28;20201;-69
2022/02/04 13:25:08;;;;;;;8.03;2.57;;;;;;;8.87;82.31;95987.63;5039105;28;20232;-69
2022/02/04 13:27:35;;;;;;;2.77;1.60;;;;;;;8.44;83.43;95992.59;5040355;28;20714;-69
2022/02/04 13:30:21;;;;;;;9.13;2.43;;;;;;;8.71;82.40;96003.50;5039352;28;20240;-69
2022/02/04 13:32:47;;;;;;;6.43;2.53;;;;;;;8.49;83.20;95991.13;5037690;28;20201;-69
2022/02/04 13:35:25;;;;;;;2.00;1.33;;;;;;;8.76;82.49;95985.41;5037893;28;20202;-69
2022/02/04 13:37:54;;;;;;;3.97;2.53;;;;;;;8.62;82.22;95984.31;5039446;28;20274;-69
2022/02/04 13:40:31;;;;;;;7.80;3.27;;;;;;;8.62;82.54;95978.25;5038746;28;20308;-69
2022/02/04 13:43:04;;;;;;;5.23;2.63;;;;;;;8.58;82.62;95969.88;5037873;28;20259;-69
2022/02/04 13:45:39;;;;;;;2.73;1.70;;;;;;;8.61;82.52;95976.59;5039289;28;20236;-69
2022/02/04 13:48:17;;;;;;;0.50;0.50;;;;;;;8.55;82.73;95979.91;5038861;28;20224;-69
2022/02/04 13:51:04;;;;;;;7.60;2.40;;;;;;;8.75;81.28;95966.19;5039219;28;20917;-69
2022/02/04 13:53:36;;;;;;;3.10;2.17;;;;;;;8.35;82.46;95969.97;5037911;28;20658;-69
2022/02/04 13:56:15;;;;;;;4.23;2.20;;;;;;;8.40;81.70;95962.41;5038931;28;20208;-69
2022/02/04 13:58:49;;;;;;;3.60;2.17;;;;;;;8.39;81.72;95953.72;5039029;28;20922;-69
2022/02/04 14:01:22;;;;;;;3.67;1.20;;;;;;;8.65;81.37;95941.94;5038505;28;20752;-70
2022/02/04 14:03:51;;;;;;;2.53;1.50;;;;;;;8.54;80.51;95944.97;5037351;28;20806;-69
2022/02/04 14:06:23;;;;;;;4.40;1.70;;;;;;;8.72;80.48;95937.63;5038026;28;20201;-69
2022/02/04 14:08:53;;;;;;;2.93;1.47;;;;;;;8.78;79.44;95929.06;5038958;28;20247;-70
2022/02/04 14:11:30;;;;;;;5.90;2.30;;;;;;;9.16;79.80;95925.50;5037466;28;20205;-69
2022/02/04 14:13:58;;;;;;;2.17;1.40;;;;;;;8.79;80.00;95928.06;5037303;28;20193;-69
2022/02/04 14:16:27;;;;;;;3.47;1.57;;;;;;;8.69;80.78;95935.38;5038111;28;20319;-69
2022/02/04 14:18:54;;;;;;;3.97;2.03;;;;;;;8.62;80.86;95930.97;5038308;28;20619;-69
2022/02/04 14:21:21;;;;;;;1.50;1.07;;;;;;;8.86;79.66;95928.19;5038436;28;20201;-69
2022/02/04 14:23:53;;;;;;;1.20;1.10;;;;;;;8.88;79.71;95927.03;5037648;28;20749;-69
2022/02/04 14:26:24;;;;;;;5.80;2.90;;;;;;;9.01;79.96;95921.19;5037569;28;20724;-69
2022/02/04 14:28:56;;;;;;;1.70;1.33;;;;;;;8.81;80.88;95928.72;5038521;28;20245;-70
2022/02/04 14:31:30;;;;;;;3.80;1.27;;;;;;;8.78;79.37;95936.97;5037804;28;20204;-70
2022/02/04 14:36:52;;;;;;;2.47;1.33;;;;;;;8.74;80.39;95934.84;5037602;28;20713;-69
2022/02/04 14:51:03;;;;;;;3.20;1.50;;;;;;;8.76;80.50;95917.09;5038352;28;20208;-70
2022/02/04 14:53:40;;;;;;;4.13;1.63;;;;;;;8.49;80.25;95928.09;5037369;28;20232;-70
2022/02/04 14:59:34;;;;;;;3.93;2.00;;;;;;;8.46;79.73;95927.59;5037575;28;20263;-70
2022/02/04 15:01:57;;;;;;;4.77;2.07;;;;;;;8.42;80.51;95928.94;5036659;28;20284;-69
2022/02/04 15:04:37;;;;;;;2.10;1.37;;;;;;;8.30;80.16;95925.88;5036117;28;20731;-70
2022/02/04 15:07:06;;;;;;;1.90;1.00;;;;;;;8.46;79.98;95924.97;5037684;28;20201;-70
2022/02/04 15:09:33;;;;;;;6.07;2.67;;;;;;;8.34;80.19;95927.16;5036942;28;20250;-70
2022/02/04 15:11:59;;;;;;;3.30;1.43;;;;;;;8.34;80.51;95934.22;5037143;28;20227;-69
2022/02/04 15:14:26;;;;;;;1.97;1.00;;;;;;;8.31;80.44;95921.44;5034439;28;20212;-69
2022/02/04 15:16:52;;;;;;;2.37;1.40;;;;;;;8.36;79.77;95929.63;5037188;28;20248;-71
2022/02/04 15:19:19;;;;;;;3.10;2.10;;;;;;;8.31;79.87;95921.44;5037263;28;20217;-69
2022/02/04 15:21:48;;;;;;;2.50;1.63;;;;;;;8.29;80.14;95933.94;5037368;28;20484;-69
2022/02/04 15:24:16;;;;;;;2.13;1.40;;;;;;;8.51;79.94;95929.56;5036118;28;20201;-71
2022/02/04 15:26:43;;;;;;;2.33;1.10;;;;;;;8.23;79.94;95922.28;5037219;28;20201;-71
2022/02/04 15:29:12;;;;;;;3.37;1.93;;;;;;;8.30;79.97;95920.63;5036596;28;20240;-69
2022/02/04 15:31:43;;;;;;;1.30;1.20;;;;;;;8.51;79.18;95913.81;5037168;28;20779;-70
2022/02/04 15:34:11;;;;;;;0.93;0.90;;;;;;;8.34;80.03;95906.16;5036284;28;20205;-71
2022/02/04 15:36:41;;;;;;;3.73;1.23;;;;;;;8.41;79.95;95908.91;5037129;28;20201;-69
2022/02/04 15:39:10;;;;;;;2.77;1.13;;;;;;;8.48;79.15;95908.88;5037442;28;20217;-69
2022/02/04 15:41:39;;;;;;;5.70;1.77;;;;;;;8.44;79.11;95905.94;5037828;28;20201;-69
2022/02/04 15:44:14;;;;;;;3.10;1.27;;;;;;;8.48;79.28;95909.84;5032878;28;20209;-70
2022/02/04 15:46:57;;;;;;;6.23;2.57;;;;;;;8.54;78.59;95902.94;5036728;28;20208;-71
2022/02/04 15:49:48;;;;;;;1.10;1.00;;;;;;;8.15;79.24;95896.06;5037000;28;20326;-70
2022/02/04 15:58:10;;;;;;;1.50;0.97;;;;;;;8.22;79.62;95888.34;5016056;28;20458;-72
2022/02/04 16:00:58;;;;;;;2.47;1.77;;;;;;;8.11;78.79;95883.44;5036469;28;20208;-71
2022/02/04 16:06:20;;;;;;;2.07;1.47;;;;;;;8.21;79.43;95884.91;5023732;28;20569;-71
2022/02/04 16:08:48;;;;;;;4.37;1.00;;;;;;;8.09;78.81;95885.41;5036670;28;20727;-72
2022/02/04 16:11:29;;;;;;;2.77;1.50;;;;;;;8.09;79.01;95894.09;5036927;28;20212;-72
2022/02/04 16:14:07;;;;;;;3.33;1.87;;;;;;;8.32;78.70;95902.06;5034257;28;20211;-71
2022/02/04 16:16:38;;;;;;;2.77;1.30;;;;;;;8.22;78.92;95904.94;5038062;28;20207;-71
2022/02/04 16:19:09;;;;;;;3.13;1.57;;;;;;;8.14;79.61;95910.19;5037206;28;20712;-70
2022/02/04 16:21:46;;;;;;;3.77;2.10;;;;;;;8.15;79.20;95913.63;5037443;28;20287;-70
2022/02/04 16:26:58;;;;;;;3.13;1.70;;;;;;;8.06;79.99;95906.75;5025398;28;20197;-70
2022/02/04 16:29:25;;;;;;;3.90;1.77;;;;;;;8.41;79.13;95911.53;5036222;28;20705;-70
2022/02/04 16:31:52;;;;;;;1.27;1.20;;;;;;;8.10;80.01;95910.66;5036248;28;20209;-71